createdAt,value
2019-03-08T00:00:53.466Z,0
2019-03-08T00:02:03.421Z,0
2019-03-08T00:03:13.374Z,0
2019-03-08T00:04:23.441Z,0
2019-03-08T00:05:33.396Z,0
2019-03-08T00:06:43.362Z,0
2019-03-08T00:07:53.078Z,0
2019-03-08T00:09:03.040Z,0
2019-03-08T00:10:13.117Z,0
2019-03-08T00:11:23.084Z,0
2019-03-08T00:12:33.053Z,0
2019-03-08T00:13:43.003Z,0
2019-03-08T00:14:52.957Z,0
2019-03-08T00:16:03.024Z,0
2019-03-08T00:17:12.994Z,0
2019-03-08T00:18:22.948Z,0
2019-03-08T00:19:32.916Z,0
2019-03-08T00:20:42.939Z,0
2019-03-08T00:21:52.997Z,0
2019-03-08T00:23:02.986Z,0
2019-03-08T00:24:12.940Z,0
2019-03-08T00:25:22.900Z,0
2019-03-08T00:26:32.849Z,0
2019-03-08T00:27:42.856Z,0
2019-03-08T00:28:52.819Z,0
2019-03-08T00:30:02.826Z,0
2019-03-08T00:31:12.855Z,0
2019-03-08T00:32:22.804Z,0
2019-03-08T00:33:32.872Z,0
2019-03-08T00:34:42.831Z,0
2019-03-08T00:35:52.800Z,0
2019-03-08T00:37:02.766Z,0
2019-03-08T00:38:12.760Z,0
2019-03-08T00:39:22.819Z,0
2019-03-08T00:40:33.015Z,0
2019-03-08T00:41:43.454Z,0
2019-03-08T00:42:53.992Z,0
2019-03-08T00:44:04.702Z,0
2019-03-08T00:45:15.144Z,0
2019-03-08T00:46:25.455Z,0
2019-03-08T00:47:35.686Z,0
2019-03-08T00:48:45.832Z,0
2019-03-08T00:49:55.798Z,0
2019-03-08T00:51:05.869Z,0
2019-03-08T00:52:15.565Z,0
2019-03-08T00:53:25.521Z,0
2019-03-08T00:54:35.497Z,0
2019-03-08T00:55:45.456Z,0
2019-03-08T00:56:55.525Z,0
2019-03-08T00:58:05.484Z,0
2019-03-08T00:59:15.447Z,0
2019-03-08T01:00:25.480Z,0
2019-03-08T01:01:35.437Z,0
2019-03-08T01:02:45.496Z,0
2019-03-08T01:03:55.457Z,0
2019-03-08T01:05:05.416Z,0
2019-03-08T01:06:15.129Z,0
2019-03-08T01:07:25.083Z,0
2019-03-08T01:08:35.100Z,0
2019-03-08T01:09:45.058Z,0
2019-03-08T01:10:55.009Z,0
2019-03-08T01:12:04.982Z,0
2019-03-08T01:13:14.926Z,0
2019-03-08T01:14:24.985Z,0
2019-03-08T01:15:34.955Z,0
2019-03-08T01:16:44.908Z,0
2019-03-08T01:17:54.871Z,0
2019-03-08T01:19:04.869Z,0
2019-03-08T01:20:14.926Z,0
2019-03-08T01:21:24.887Z,0
2019-03-08T01:22:34.837Z,0
2019-03-08T01:23:44.794Z,0
2019-03-08T01:24:54.749Z,0
2019-03-08T01:26:04.823Z,0
2019-03-08T01:27:14.780Z,0
2019-03-08T01:28:24.743Z,0
2019-03-08T01:29:34.706Z,0
2019-03-08T01:30:44.664Z,0
2019-03-08T01:31:55.934Z,0
2019-03-08T01:33:06.174Z,0
2019-03-08T01:34:16.562Z,0
2019-03-08T01:35:27.596Z,0
2019-03-08T01:36:38.002Z,0
2019-03-08T01:37:48.711Z,0
2019-03-08T01:38:59.057Z,0
2019-03-08T01:40:09.164Z,0
2019-03-08T01:41:19.237Z,0
2019-03-08T01:42:29.189Z,0
2019-03-08T01:43:38.998Z,0
2019-03-08T01:44:48.958Z,0
2019-03-08T01:45:58.919Z,0
2019-03-08T01:47:08.874Z,0
2019-03-08T01:48:18.579Z,0
2019-03-08T01:49:28.653Z,0
2019-03-08T01:50:38.634Z,0
2019-03-08T01:51:48.586Z,0
2019-03-08T01:52:58.542Z,0
2019-03-08T01:54:08.492Z,0
2019-03-08T01:55:18.547Z,0
2019-03-08T01:56:28.492Z,0
2019-03-08T01:57:38.442Z,0
2019-03-08T01:58:48.419Z,0
2019-03-08T01:59:58.365Z,0
2019-03-08T02:01:08.325Z,0
2019-03-08T02:02:20.073Z,0
2019-03-08T02:03:30.024Z,0
2019-03-08T02:04:39.984Z,0
2019-03-08T02:05:49.946Z,0
2019-03-08T02:06:59.945Z,0
2019-03-08T02:08:09.902Z,0
2019-03-08T02:09:19.847Z,0
2019-03-08T02:10:29.802Z,0
2019-03-08T02:11:39.760Z,0
2019-03-08T02:12:51.742Z,0
2019-03-08T02:14:01.453Z,0
2019-03-08T02:15:11.406Z,0
2019-03-08T02:16:21.349Z,0
2019-03-08T02:17:31.310Z,0
2019-03-08T02:18:41.325Z,0
2019-03-08T02:19:51.287Z,0
2019-03-08T02:21:11.107Z,0
2019-03-08T02:22:23.520Z,0
2019-03-08T02:23:33.807Z,0
2019-03-08T02:24:43.823Z,0
2019-03-08T02:25:55.313Z,0
2019-03-08T02:27:05.284Z,0
2019-03-08T02:28:15.871Z,0
2019-03-08T02:29:25.986Z,0
2019-03-08T02:30:35.706Z,0
2019-03-08T02:31:45.665Z,0
2019-03-08T02:32:55.623Z,0
2019-03-08T02:34:05.570Z,0
2019-03-08T02:35:15.545Z,0
2019-03-08T02:36:25.533Z,0
2019-03-08T02:37:35.483Z,0
2019-03-08T02:38:45.473Z,0
2019-03-08T02:39:55.431Z,0
2019-03-08T02:41:05.476Z,0
2019-03-08T02:42:15.455Z,0
2019-03-08T02:43:25.419Z,0
2019-03-08T02:44:35.365Z,0
2019-03-08T02:45:45.326Z,0
2019-03-08T02:46:55.371Z,0
2019-03-08T02:48:05.348Z,0
2019-03-08T02:49:16.027Z,0
2019-03-08T02:50:25.997Z,0
2019-03-08T02:51:35.959Z,0
2019-03-08T02:52:46.057Z,0
2019-03-08T02:53:55.757Z,0
2019-03-08T02:55:05.707Z,0
2019-03-08T02:56:15.666Z,0
2019-03-08T02:57:25.619Z,0
2019-03-08T02:58:35.618Z,0
2019-03-08T02:59:45.581Z,0
2019-03-08T03:00:55.552Z,0
2019-03-08T03:02:05.521Z,0
2019-03-08T03:03:15.475Z,0
2019-03-08T03:04:25.526Z,0
2019-03-08T03:05:35.489Z,0
2019-03-08T03:06:47.370Z,0
2019-03-08T03:07:57.917Z,0
2019-03-08T03:09:08.234Z,0
2019-03-08T03:10:18.782Z,0
2019-03-08T03:11:28.912Z,0
2019-03-08T03:12:39.112Z,0
2019-03-08T03:13:49.066Z,0
2019-03-08T03:14:59.026Z,0
2019-03-08T03:16:09.042Z,0
2019-03-08T03:17:18.996Z,0
2019-03-08T03:18:29.012Z,0
2019-03-08T03:19:38.976Z,0
2019-03-08T03:20:48.945Z,0
2019-03-08T03:21:59.003Z,0
2019-03-08T03:23:08.975Z,0
2019-03-08T03:24:18.941Z,0
2019-03-08T03:25:28.902Z,0
2019-03-08T03:26:38.860Z,0
2019-03-08T03:27:48.877Z,0
2019-03-08T03:28:58.830Z,0
2019-03-08T03:30:08.795Z,0
2019-03-08T03:31:18.765Z,0
2019-03-08T03:32:28.739Z,0
2019-03-08T03:33:38.805Z,0
2019-03-08T03:34:48.757Z,0
2019-03-08T03:35:58.714Z,0
2019-03-08T03:37:08.689Z,0
2019-03-08T03:38:18.427Z,0
2019-03-08T03:39:28.501Z,0
2019-03-08T03:40:38.506Z,0
2019-03-08T03:41:48.450Z,0
2019-03-08T03:42:58.416Z,0
2019-03-08T03:44:08.387Z,0
2019-03-08T03:45:18.455Z,0
2019-03-08T03:46:28.418Z,0
2019-03-08T03:47:38.389Z,0
2019-03-08T03:48:48.334Z,0
2019-03-08T03:49:58.295Z,0
2019-03-08T03:51:08.305Z,0
2019-03-08T03:52:18.255Z,0
2019-03-08T03:53:28.214Z,0
2019-03-08T03:54:38.172Z,0
2019-03-08T03:55:48.123Z,0
2019-03-08T03:56:58.424Z,0
2019-03-08T03:58:08.396Z,0
2019-03-08T03:59:20.914Z,0
2019-03-08T04:00:31.419Z,0
2019-03-08T04:01:41.847Z,0
2019-03-08T04:02:52.312Z,0
2019-03-08T04:04:02.514Z,0
2019-03-08T04:05:12.664Z,0
2019-03-08T04:06:22.633Z,0
2019-03-08T04:07:32.346Z,0
2019-03-08T04:08:42.410Z,0
2019-03-08T04:09:52.377Z,0
2019-03-08T04:11:02.331Z,0
2019-03-08T04:12:12.288Z,0
2019-03-08T04:13:22.236Z,0
2019-03-08T04:14:32.263Z,0
2019-03-08T04:15:42.209Z,0
2019-03-08T04:16:52.174Z,0
2019-03-08T04:18:02.141Z,0
2019-03-08T04:19:12.089Z,0
2019-03-08T04:20:22.167Z,0
2019-03-08T04:21:32.122Z,0
2019-03-08T04:22:42.084Z,0
2019-03-08T04:23:52.051Z,0
2019-03-08T04:25:02.060Z,0
2019-03-08T04:26:12.114Z,0
2019-03-08T04:27:22.079Z,0
2019-03-08T04:28:32.040Z,0
2019-03-08T04:29:41.988Z,0
2019-03-08T04:30:51.939Z,0
2019-03-08T04:32:01.993Z,0
2019-03-08T04:33:11.941Z,0
2019-03-08T04:34:21.647Z,0
2019-03-08T04:35:31.610Z,0
2019-03-08T04:36:41.338Z,0
2019-03-08T04:37:51.435Z,0
2019-03-08T04:39:01.388Z,0
2019-03-08T04:40:11.335Z,0
2019-03-08T04:41:21.304Z,0
2019-03-08T04:42:31.252Z,0
2019-03-08T04:43:41.303Z,0
2019-03-08T04:44:51.251Z,0
2019-03-08T04:46:01.208Z,0
2019-03-08T04:47:11.156Z,0
2019-03-08T04:48:21.116Z,0
2019-03-08T04:49:31.106Z,0
2019-03-08T04:50:41.063Z,0
2019-03-08T04:51:51.030Z,0
2019-03-08T04:53:03.604Z,0
2019-03-08T04:54:14.217Z,0
2019-03-08T04:55:27.425Z,0
2019-03-08T04:56:37.776Z,0
2019-03-08T04:57:47.943Z,0
2019-03-08T04:58:57.920Z,0
2019-03-08T05:00:07.906Z,0
2019-03-08T05:01:17.864Z,0
2019-03-08T05:02:27.819Z,0
2019-03-08T05:03:37.776Z,0
2019-03-08T05:04:47.735Z,0
2019-03-08T05:05:57.698Z,0
2019-03-08T05:07:07.755Z,0
2019-03-08T05:08:17.706Z,0
2019-03-08T05:09:27.682Z,0
2019-03-08T05:10:37.651Z,0
2019-03-08T05:11:47.593Z,0
2019-03-08T05:12:57.721Z,0
2019-03-08T05:14:07.716Z,0
2019-03-08T05:15:17.682Z,0
2019-03-08T05:16:27.648Z,0
2019-03-08T05:17:37.618Z,0
2019-03-08T05:18:47.582Z,0
2019-03-08T05:19:57.535Z,0
2019-03-08T05:21:07.498Z,0
2019-03-08T05:22:17.442Z,0
2019-03-08T05:23:27.385Z,0
2019-03-08T05:24:37.459Z,0
2019-03-08T05:25:47.420Z,0
2019-03-08T05:26:57.405Z,0
2019-03-08T05:28:07.486Z,0
2019-03-08T05:29:17.456Z,0
2019-03-08T05:30:27.474Z,0
2019-03-08T05:31:37.430Z,0
2019-03-08T05:32:47.425Z,0
2019-03-08T05:33:57.391Z,0
2019-03-08T05:35:07.471Z,0
2019-03-08T05:36:17.530Z,0
2019-03-08T05:37:27.500Z,0
2019-03-08T05:38:37.471Z,0
2019-03-08T05:39:47.433Z,0
2019-03-08T05:40:57.373Z,0
2019-03-08T05:42:07.126Z,0
2019-03-08T05:43:17.071Z,0
2019-03-08T05:44:27.016Z,0
2019-03-08T05:45:37.200Z,0
2019-03-08T05:46:47.588Z,0
2019-03-08T05:47:58.084Z,0
2019-03-08T05:49:08.370Z,0
2019-03-08T05:50:19.232Z,0
2019-03-08T05:51:29.623Z,0
2019-03-08T05:52:40.132Z,0
2019-03-08T05:53:50.552Z,5
2019-03-08T05:55:00.717Z,5
2019-03-08T05:56:10.790Z,5
2019-03-08T05:57:20.737Z,5
2019-03-08T05:58:30.712Z,5
2019-03-08T05:59:40.763Z,10
2019-03-08T06:00:50.726Z,10
2019-03-08T06:02:00.677Z,10
2019-03-08T06:03:10.376Z,10
2019-03-08T06:04:20.335Z,15
2019-03-08T06:05:30.405Z,15
2019-03-08T06:06:40.354Z,15
2019-03-08T06:07:50.328Z,20
2019-03-08T06:09:00.294Z,20
2019-03-08T06:10:10.253Z,25
2019-03-08T06:11:20.062Z,25
2019-03-08T06:12:30.024Z,25
2019-03-08T06:13:39.968Z,30
2019-03-08T06:14:49.944Z,30
2019-03-08T06:15:59.942Z,30
2019-03-08T06:17:10.070Z,35
2019-03-08T06:18:20.015Z,35
2019-03-08T06:19:29.980Z,40
2019-03-08T06:20:39.693Z,40
2019-03-08T06:21:49.651Z,40
2019-03-08T06:22:59.726Z,40
2019-03-08T06:24:09.682Z,45
2019-03-08T06:25:19.670Z,45
2019-03-08T06:26:29.641Z,45
2019-03-08T06:27:39.605Z,45
2019-03-08T06:28:49.679Z,45
2019-03-08T06:29:59.662Z,45
2019-03-08T06:31:09.617Z,45
2019-03-08T06:32:19.586Z,45
2019-03-08T06:33:29.547Z,45
2019-03-08T06:34:40.129Z,45
2019-03-08T06:35:50.082Z,45
2019-03-08T06:37:00.062Z,45
2019-03-08T06:38:10.016Z,45
2019-03-08T06:39:19.983Z,50
2019-03-08T06:40:30.088Z,50
2019-03-08T06:41:40.052Z,50
2019-03-08T06:42:49.994Z,50
2019-03-08T06:43:59.953Z,55
2019-03-08T06:45:09.911Z,55
2019-03-08T06:46:19.968Z,55
2019-03-08T06:47:29.918Z,60
2019-03-08T06:48:39.867Z,60
2019-03-08T06:49:49.812Z,65
2019-03-08T06:51:00.214Z,65
2019-03-08T06:52:10.706Z,70
2019-03-08T06:53:21.410Z,70
2019-03-08T06:54:32.111Z,75
2019-03-08T06:55:42.499Z,80
2019-03-08T06:56:53.013Z,80
2019-03-08T06:58:03.375Z,80
2019-03-08T06:59:13.550Z,80
2019-03-08T07:00:23.601Z,85
2019-03-08T07:01:33.564Z,90
2019-03-08T07:02:43.507Z,90
2019-03-08T07:03:53.259Z,95
2019-03-08T07:05:03.222Z,95
2019-03-08T07:06:13.174Z,100
2019-03-08T07:07:23.134Z,105
2019-03-08T07:08:33.082Z,110
2019-03-08T07:09:43.110Z,110
2019-03-08T07:10:53.066Z,110
2019-03-08T07:12:03.022Z,115
2019-03-08T07:13:13.578Z,115
2019-03-08T07:14:23.536Z,115
2019-03-08T07:15:33.498Z,120
2019-03-08T07:16:43.475Z,120
2019-03-08T07:17:53.454Z,120
2019-03-08T07:19:03.447Z,125
2019-03-08T07:20:13.404Z,125
2019-03-08T07:21:23.406Z,125
2019-03-08T07:22:33.361Z,130
2019-03-08T07:23:43.316Z,130
2019-03-08T07:24:53.274Z,130
2019-03-08T07:26:04.122Z,130
2019-03-08T07:27:14.144Z,130
2019-03-08T07:28:24.112Z,135
2019-03-08T07:29:34.089Z,135
2019-03-08T07:30:44.036Z,140
2019-03-08T07:31:53.990Z,140
2019-03-08T07:33:04.120Z,145
2019-03-08T07:34:15.904Z,150
2019-03-08T07:35:25.869Z,155
2019-03-08T07:36:35.832Z,160
2019-03-08T07:37:47.454Z,160
2019-03-08T07:38:57.459Z,165
2019-03-08T07:40:07.476Z,175
2019-03-08T07:41:17.448Z,185
2019-03-08T07:42:27.466Z,190
2019-03-08T07:43:37.416Z,200
2019-03-08T07:44:47.382Z,210
2019-03-08T07:45:57.541Z,215
2019-03-08T07:47:07.947Z,220
2019-03-08T07:48:18.631Z,225
2019-03-08T07:49:30.105Z,230
2019-03-08T07:50:40.686Z,235
2019-03-08T07:51:51.064Z,235
2019-03-08T07:53:01.204Z,235
2019-03-08T07:54:11.350Z,235
2019-03-08T07:55:21.301Z,235
2019-03-08T07:56:31.304Z,235
2019-03-08T07:57:41.328Z,235
2019-03-08T07:58:51.278Z,235
2019-03-08T08:00:03.670Z,240
2019-03-08T08:01:13.662Z,245
2019-03-08T08:02:23.749Z,250
2019-03-08T08:03:33.491Z,255
2019-03-08T08:04:43.445Z,265
2019-03-08T08:06:02.469Z,265
2019-03-08T08:07:12.453Z,275
2019-03-08T08:08:22.462Z,280
2019-03-08T08:09:32.434Z,285
2019-03-08T08:10:42.377Z,290
2019-03-08T08:11:52.329Z,295
2019-03-08T08:13:02.275Z,295
2019-03-08T08:14:12.288Z,295
2019-03-08T08:15:22.267Z,295
2019-03-08T08:16:32.224Z,295
2019-03-08T08:17:41.946Z,295
2019-03-08T08:18:51.944Z,295
2019-03-08T08:20:01.992Z,295
2019-03-08T08:21:11.942Z,300
2019-03-08T08:22:22.000Z,300
2019-03-08T08:23:42.511Z,300
2019-03-08T08:24:53.022Z,300
2019-03-08T08:26:03.378Z,300
2019-03-08T08:27:14.313Z,295
2019-03-08T08:28:24.411Z,300
2019-03-08T08:29:42.191Z,300
2019-03-08T08:30:52.281Z,300
2019-03-08T08:32:02.244Z,300
2019-03-08T08:33:12.201Z,305
2019-03-08T08:34:24.332Z,310
2019-03-08T08:35:34.286Z,310
2019-03-08T08:36:44.344Z,315
2019-03-08T08:37:54.341Z,320
2019-03-08T08:39:04.285Z,325
2019-03-08T08:40:14.229Z,330
2019-03-08T08:41:24.201Z,340
2019-03-08T08:42:34.155Z,350
2019-03-08T08:43:44.119Z,355
2019-03-08T08:44:55.582Z,360
2019-03-08T08:46:05.282Z,370
2019-03-08T08:47:15.239Z,385
2019-03-08T08:48:25.204Z,395
2019-03-08T08:49:35.153Z,410
2019-03-08T08:50:45.355Z,420
2019-03-08T08:51:55.325Z,430
2019-03-08T08:53:05.282Z,445
2019-03-08T08:54:15.396Z,455
2019-03-08T08:55:25.366Z,470
2019-03-08T08:56:35.333Z,480
2019-03-08T08:57:45.290Z,485
2019-03-08T08:58:55.256Z,495
2019-03-08T09:00:06.689Z,500
2019-03-08T09:01:16.414Z,505
2019-03-08T09:02:26.377Z,505
2019-03-08T09:03:36.699Z,505
2019-03-08T09:04:47.146Z,500
2019-03-08T09:05:59.035Z,495
2019-03-08T09:07:09.474Z,485
2019-03-08T09:08:19.967Z,480
2019-03-08T09:09:30.352Z,470
2019-03-08T09:10:40.296Z,465
2019-03-08T09:12:00.035Z,450
2019-03-08T09:13:10.000Z,445
2019-03-08T09:14:19.960Z,435
2019-03-08T09:15:29.918Z,430
2019-03-08T09:16:39.881Z,430
2019-03-08T09:17:49.940Z,425
2019-03-08T09:18:59.886Z,430
2019-03-08T09:20:09.919Z,420
2019-03-08T09:21:19.879Z,415
2019-03-08T09:22:29.832Z,415
2019-03-08T09:23:39.879Z,420
2019-03-08T09:24:49.823Z,415
2019-03-08T09:25:59.766Z,415
2019-03-08T09:27:09.728Z,420
2019-03-08T09:28:19.679Z,420
2019-03-08T09:29:29.643Z,425
2019-03-08T09:30:39.587Z,430
2019-03-08T09:31:49.540Z,430
2019-03-08T09:33:08.458Z,435
2019-03-08T09:34:18.413Z,435
2019-03-08T09:35:28.400Z,430
2019-03-08T09:36:38.156Z,425
2019-03-08T09:37:48.127Z,425
2019-03-08T09:38:58.079Z,425
2019-03-08T09:40:08.047Z,420
2019-03-08T09:41:18.118Z,415
2019-03-08T09:42:28.067Z,415
2019-03-08T09:43:38.395Z,410
2019-03-08T09:44:48.714Z,410
2019-03-08T09:45:59.188Z,410
2019-03-08T09:47:09.736Z,410
2019-03-08T09:48:20.207Z,410
2019-03-08T09:49:30.608Z,410
2019-03-08T09:50:40.770Z,410
2019-03-08T09:51:50.490Z,415
2019-03-08T09:53:00.560Z,415
2019-03-08T09:54:10.523Z,420
2019-03-08T09:55:20.473Z,420
2019-03-08T09:56:30.453Z,425
2019-03-08T09:57:40.425Z,425
2019-03-08T09:58:50.490Z,420
2019-03-08T10:00:00.442Z,425
2019-03-08T10:01:19.062Z,425
2019-03-08T10:02:28.769Z,430
2019-03-08T10:03:38.735Z,435
2019-03-08T10:04:48.797Z,435
2019-03-08T10:05:58.764Z,440
2019-03-08T10:07:08.769Z,440
2019-03-08T10:08:18.476Z,445
2019-03-08T10:09:28.446Z,445
2019-03-08T10:10:38.407Z,450
2019-03-08T10:11:48.376Z,455
2019-03-08T10:12:58.394Z,450
2019-03-08T10:14:08.338Z,460
2019-03-08T10:15:18.310Z,455
2019-03-08T10:16:28.384Z,460
2019-03-08T10:17:38.348Z,470
2019-03-08T10:18:49.845Z,470
2019-03-08T10:19:59.836Z,475
2019-03-08T10:21:09.849Z,470
2019-03-08T10:22:19.901Z,475
2019-03-08T10:23:29.914Z,475
2019-03-08T10:24:39.869Z,480
2019-03-08T10:25:49.830Z,480
2019-03-08T10:26:59.857Z,485
2019-03-08T10:28:09.977Z,490
2019-03-08T10:29:20.409Z,490
2019-03-08T10:30:31.935Z,495
2019-03-08T10:31:42.753Z,500
2019-03-08T10:32:53.143Z,500
2019-03-08T10:34:03.652Z,500
2019-03-08T10:35:25.483Z,505
2019-03-08T10:36:35.432Z,500
2019-03-08T10:37:45.382Z,500
2019-03-08T10:38:56.051Z,495
2019-03-08T10:40:08.042Z,490
2019-03-08T10:41:18.000Z,490
2019-03-08T10:42:27.956Z,490
2019-03-08T10:43:37.902Z,495
2019-03-08T10:44:48.001Z,495
2019-03-08T10:45:57.959Z,500
2019-03-08T10:47:07.671Z,500
2019-03-08T10:48:17.404Z,505
2019-03-08T10:49:27.368Z,505
2019-03-08T10:50:37.431Z,510
2019-03-08T10:51:47.400Z,510
2019-03-08T10:52:57.347Z,515
2019-03-08T10:54:10.495Z,515
2019-03-08T10:55:20.456Z,515
2019-03-08T10:56:30.472Z,510
2019-03-08T10:57:40.436Z,510
2019-03-08T10:58:50.427Z,505
2019-03-08T11:00:00.422Z,510
2019-03-08T11:01:10.390Z,505
2019-03-08T11:02:20.395Z,510
2019-03-08T11:03:30.393Z,510
2019-03-08T11:04:40.352Z,515
2019-03-08T11:05:50.336Z,515
2019-03-08T11:07:00.290Z,515
2019-03-08T11:08:11.675Z,520
2019-03-08T11:09:22.073Z,520
2019-03-08T11:10:32.745Z,525
2019-03-08T11:11:43.282Z,525
2019-03-08T11:12:53.814Z,530
2019-03-08T11:14:04.236Z,540
2019-03-08T11:15:23.899Z,550
2019-03-08T11:16:34.660Z,565
2019-03-08T11:17:53.095Z,575
2019-03-08T11:19:11.109Z,580
2019-03-08T11:20:21.078Z,585
2019-03-08T11:21:31.235Z,585
2019-03-08T11:22:41.245Z,585
2019-03-08T11:23:51.220Z,585
2019-03-08T11:25:10.103Z,580
2019-03-08T11:26:20.055Z,575
2019-03-08T11:27:30.006Z,575
2019-03-08T11:28:39.974Z,570
2019-03-08T11:29:49.945Z,570
2019-03-08T11:31:04.037Z,570
2019-03-08T11:32:22.659Z,565
2019-03-08T11:33:32.965Z,565
2019-03-08T11:34:51.737Z,560
2019-03-08T11:36:01.937Z,560
2019-03-08T11:37:13.826Z,560
2019-03-08T11:38:25.225Z,560
2019-03-08T11:39:35.187Z,570
2019-03-08T11:40:45.147Z,580
2019-03-08T11:41:55.226Z,575
2019-03-08T11:43:05.190Z,570
2019-03-08T11:44:15.162Z,555
2019-03-08T11:45:26.264Z,545
2019-03-08T11:46:36.327Z,535
2019-03-08T11:47:46.305Z,530
2019-03-08T11:48:56.258Z,535
2019-03-08T11:50:06.230Z,540
2019-03-08T11:51:16.188Z,555
2019-03-08T11:52:26.150Z,570
2019-03-08T11:53:36.149Z,590
2019-03-08T11:54:50.544Z,605
2019-03-08T11:56:00.263Z,620
2019-03-08T11:57:11.678Z,625
2019-03-08T11:58:21.391Z,630
2019-03-08T11:59:31.460Z,640
2019-03-08T12:00:41.423Z,650
2019-03-08T12:01:52.646Z,655
2019-03-08T12:03:03.150Z,655
2019-03-08T12:04:13.331Z,655
2019-03-08T12:05:23.773Z,650
2019-03-08T12:06:34.858Z,645
2019-03-08T12:07:47.200Z,645
2019-03-08T12:08:57.291Z,640
2019-03-08T12:10:07.493Z,625
2019-03-08T12:11:18.997Z,615
2019-03-08T12:12:28.958Z,605
2019-03-08T12:13:39.550Z,605
2019-03-08T12:14:49.532Z,610
2019-03-08T12:15:59.477Z,615
2019-03-08T12:17:09.489Z,625
2019-03-08T12:18:19.439Z,625
2019-03-08T12:19:29.146Z,620
2019-03-08T12:20:38.860Z,620
2019-03-08T12:21:48.826Z,615
2019-03-08T12:22:58.834Z,615
2019-03-08T12:24:08.794Z,620
2019-03-08T12:25:18.748Z,620
2019-03-08T12:26:28.855Z,635
2019-03-08T12:27:38.830Z,625
2019-03-08T12:28:48.838Z,630
2019-03-08T12:29:58.805Z,630
2019-03-08T12:31:08.787Z,645
2019-03-08T12:32:18.748Z,645
2019-03-08T12:33:28.736Z,650
2019-03-08T12:34:38.696Z,650
2019-03-08T12:35:48.664Z,655
2019-03-08T12:36:58.630Z,665
2019-03-08T12:38:08.594Z,665
2019-03-08T12:39:18.554Z,665
2019-03-08T12:40:28.638Z,675
2019-03-08T12:41:38.613Z,680
2019-03-08T12:42:48.573Z,675
2019-03-08T12:43:58.543Z,665
2019-03-08T12:45:08.516Z,655
2019-03-08T12:46:18.599Z,650
2019-03-08T12:47:28.776Z,660
2019-03-08T12:48:39.259Z,670
2019-03-08T12:49:49.840Z,660
2019-03-08T12:51:01.097Z,655
2019-03-08T12:52:11.290Z,650
2019-03-08T12:53:21.506Z,650
2019-03-08T12:54:31.528Z,650
2019-03-08T12:55:40.977Z,650
2019-03-08T12:56:50.681Z,640
2019-03-08T12:58:00.804Z,640
2019-03-08T12:59:10.802Z,635
2019-03-08T13:00:22.327Z,625
2019-03-08T13:01:32.279Z,620
2019-03-08T13:02:42.238Z,620
2019-03-08T13:03:52.254Z,625
2019-03-08T13:05:02.215Z,625
2019-03-08T13:06:12.195Z,625
2019-03-08T13:07:22.143Z,625
2019-03-08T13:08:32.095Z,610
2019-03-08T13:09:42.217Z,615
2019-03-08T13:10:52.190Z,610
2019-03-08T13:12:02.159Z,620
2019-03-08T13:13:13.079Z,635
2019-03-08T13:14:23.115Z,675
2019-03-08T13:15:33.129Z,695
2019-03-08T13:16:43.100Z,805
2019-03-08T13:17:53.067Z,1005
2019-03-08T13:19:03.042Z,1215
2019-03-08T13:20:13.005Z,760
2019-03-08T13:21:23.009Z,875
2019-03-08T13:22:32.969Z,750
2019-03-08T13:23:42.935Z,745
2019-03-08T13:24:52.895Z,815
2019-03-08T13:26:02.857Z,775
2019-03-08T13:27:12.970Z,690
2019-03-08T13:28:22.928Z,640
2019-03-08T13:29:32.895Z,755
2019-03-08T13:30:42.919Z,635
2019-03-08T13:31:52.877Z,675
2019-03-08T13:33:02.970Z,815
2019-03-08T13:34:12.939Z,950
2019-03-08T13:35:22.901Z,905
2019-03-08T13:36:32.877Z,905
2019-03-08T13:37:43.347Z,855
2019-03-08T13:38:53.922Z,755
2019-03-08T13:40:04.458Z,875
2019-03-08T13:41:14.875Z,700
2019-03-08T13:42:25.168Z,680
2019-03-08T13:43:35.504Z,665
2019-03-08T13:44:45.763Z,660
2019-03-08T13:45:55.860Z,705
2019-03-08T13:47:05.827Z,1075
2019-03-08T13:48:15.788Z,640
2019-03-08T13:49:27.297Z,760
2019-03-08T13:50:37.428Z,680
2019-03-08T13:51:47.410Z,1075
2019-03-08T13:52:57.372Z,775
2019-03-08T13:54:07.352Z,1365
2019-03-08T13:55:19.400Z,1455
2019-03-08T13:56:29.412Z,965
2019-03-08T13:57:39.365Z,1380
2019-03-08T13:58:49.332Z,1080
2019-03-08T13:59:59.290Z,975
2019-03-08T14:01:09.251Z,830
2019-03-08T14:02:19.272Z,695
2019-03-08T14:03:29.242Z,785
2019-03-08T14:04:39.218Z,920
2019-03-08T14:05:49.198Z,1260
2019-03-08T14:06:59.173Z,1240
2019-03-08T14:08:08.935Z,970
2019-03-08T14:09:20.338Z,800
2019-03-08T14:10:30.341Z,1060
2019-03-08T14:11:40.301Z,970
2019-03-08T14:12:50.270Z,815
2019-03-08T14:14:00.344Z,450
2019-03-08T14:15:10.361Z,630
2019-03-08T14:16:20.324Z,1035
2019-03-08T14:17:30.299Z,840
2019-03-08T14:18:40.270Z,600
2019-03-08T14:19:50.306Z,890
2019-03-08T14:21:00.012Z,1120
2019-03-08T14:22:09.986Z,1185
2019-03-08T14:23:19.951Z,735
2019-03-08T14:24:29.931Z,755
2019-03-08T14:25:39.943Z,545
2019-03-08T14:26:50.273Z,860
2019-03-08T14:28:00.757Z,915
2019-03-08T14:29:11.366Z,1055
2019-03-08T14:30:22.138Z,1095
2019-03-08T14:31:32.704Z,905
2019-03-08T14:32:44.445Z,680
2019-03-08T14:33:54.502Z,500
2019-03-08T14:35:04.651Z,470
2019-03-08T14:36:16.607Z,385
2019-03-08T14:37:30.177Z,495
2019-03-08T14:38:42.253Z,725
2019-03-08T14:39:55.079Z,1105
2019-03-08T14:41:07.308Z,920
2019-03-08T14:42:18.226Z,665
2019-03-08T14:43:28.187Z,665
2019-03-08T14:44:40.611Z,570
2019-03-08T14:45:54.238Z,705
2019-03-08T14:47:07.038Z,690
2019-03-08T14:48:19.316Z,885
2019-03-08T14:49:32.570Z,1115
2019-03-08T14:50:45.157Z,935
2019-03-08T14:51:59.391Z,770
2019-03-08T14:53:09.973Z,845
2019-03-08T14:54:20.815Z,665
2019-03-08T14:55:32.364Z,585
2019-03-08T14:56:45.619Z,710
2019-03-08T14:57:58.852Z,670
2019-03-08T14:59:11.101Z,685
2019-03-08T15:00:21.301Z,755
2019-03-08T15:01:31.283Z,840
2019-03-08T15:02:41.230Z,820
2019-03-08T15:03:56.532Z,660
2019-03-08T15:05:18.999Z,1020
2019-03-08T15:06:32.987Z,885
2019-03-08T15:07:46.059Z,690
2019-03-08T15:09:01.181Z,780
2019-03-08T15:10:14.512Z,790
2019-03-08T15:11:28.426Z,700
2019-03-08T15:12:55.563Z,545
2019-03-08T15:14:07.703Z,885
2019-03-08T15:15:21.070Z,845
2019-03-08T15:16:31.024Z,905
2019-03-08T15:17:40.964Z,1055
2019-03-08T15:18:50.893Z,1070
2019-03-08T15:20:00.852Z,985
2019-03-08T15:21:10.636Z,940
2019-03-08T15:22:20.572Z,1000
2019-03-08T15:23:32.380Z,1085
2019-03-08T15:24:47.812Z,1160
2019-03-08T15:25:58.958Z,1260
2019-03-08T15:27:09.715Z,1250
2019-03-08T15:28:20.438Z,1220
2019-03-08T15:29:30.884Z,1210
2019-03-08T15:30:41.231Z,1210
2019-03-08T15:31:51.371Z,1180
2019-03-08T15:33:01.370Z,1165
2019-03-08T15:34:14.461Z,1190
2019-03-08T15:35:28.347Z,1150
2019-03-08T15:36:38.294Z,1105
2019-03-08T15:37:53.941Z,1065
2019-03-08T15:39:08.345Z,1090
2019-03-08T15:40:18.060Z,1075
2019-03-08T15:41:34.049Z,1060
2019-03-08T15:42:46.208Z,1045
2019-03-08T15:44:00.688Z,1025
2019-03-08T15:45:13.090Z,1005
2019-03-08T15:46:29.442Z,980
2019-03-08T15:47:45.427Z,945
2019-03-08T15:49:00.380Z,930
2019-03-08T15:50:13.202Z,890
2019-03-08T15:51:27.912Z,775
2019-03-08T15:52:37.877Z,755
2019-03-08T15:53:47.815Z,775
2019-03-08T15:54:57.761Z,720
2019-03-08T15:56:07.765Z,500
2019-03-08T15:57:17.730Z,375
2019-03-08T15:58:27.693Z,370
2019-03-08T15:59:37.397Z,405
2019-03-08T16:00:47.352Z,450
2019-03-08T16:01:57.298Z,465
2019-03-08T16:03:07.127Z,365
2019-03-08T16:04:21.454Z,365
2019-03-08T16:05:35.635Z,410
2019-03-08T16:06:51.346Z,445
2019-03-08T16:08:08.809Z,475
2019-03-08T16:09:18.746Z,470
2019-03-08T16:10:28.910Z,460
2019-03-08T16:11:38.866Z,355
2019-03-08T16:12:48.558Z,400
2019-03-08T16:14:08.204Z,405
2019-03-08T16:15:18.383Z,315
2019-03-08T16:16:28.335Z,300
2019-03-08T16:17:39.162Z,385
2019-03-08T16:18:53.041Z,390
2019-03-08T16:20:07.873Z,345
2019-03-08T16:21:20.397Z,295
2019-03-08T16:22:34.603Z,260
2019-03-08T16:23:44.568Z,325
2019-03-08T16:24:54.522Z,385
2019-03-08T16:26:04.469Z,265
2019-03-08T16:27:14.406Z,105
2019-03-08T16:28:24.979Z,130
2019-03-08T16:29:35.562Z,185
2019-03-08T16:30:50.077Z,110
2019-03-08T16:32:02.370Z,80
2019-03-08T16:33:12.311Z,75
2019-03-08T16:34:22.362Z,75
2019-03-08T16:35:32.305Z,70
2019-03-08T16:36:42.245Z,65